CCA4123 ZBAA-ZULS
Flight info
| Callsign | CCA4123 |
|---|---|
| Flight time | 3h 39m |
| Altitude | 32100 |
| Route | BOTPU6J BOTPU W47 IDSOT W48 MAKIP DCT MULOB/K0861S1040 W220 NIRUV B215 VENIV W198 PANRA DCT XNN DCT IGELA DCT TAPUN W500 LXA |
| Aircraft | A20N/M-SDE2E3FGHIRWXY/LB1 |
Departure
| Time | 2026-05-07 23:23 |
|---|---|
| Airport | Beijing Capital International Airport (ZBAA) |
Arrival
| Time | 2026-05-08 03:03 |
|---|---|
| Airport | Lhasa Gonggar International Airport (ZULS) |
| Time | Latitude | Longitude | Altitude | Speed | Heading |
|---|---|---|---|---|---|
| 2026-05-07 22:58 | 40.07886 | 116.60124 | 124 ft | 0 kts | 203° |
| 2026-05-07 23:11 | 40.07897 | 116.60131 | 121 ft | 4 kts | 204° |
| 2026-05-07 23:11 | 40.07922 | 116.60146 | 122 ft | 4 kts | 206° |
| 2026-05-07 23:12 | 40.07944 | 116.60162 | 121 ft | 3 kts | 214° |
| 2026-05-07 23:12 | 40.07959 | 116.60180 | 120 ft | 2 kts | 242° |
| 2026-05-07 23:12 | 40.07962 | 116.60194 | 120 ft | 2 kts | 277° |
| 2026-05-07 23:12 | 40.07959 | 116.60208 | 120 ft | 2 kts | 290° |
| 2026-05-07 23:13 | 40.07955 | 116.60221 | 122 ft | 2 kts | 293° |
| 2026-05-07 23:13 | 40.07955 | 116.60222 | 121 ft | 0 kts | 293° |
| 2026-05-07 23:18 | 40.07955 | 116.60221 | 121 ft | 1 kts | 293° |
| 2026-05-07 23:18 | 40.07978 | 116.60151 | 120 ft | 15 kts | 293° |
| 2026-05-07 23:18 | 40.07995 | 116.60000 | 122 ft | 13 kts | 272° |
| 2026-05-07 23:19 | 40.08049 | 116.59973 | 122 ft | 7 kts | 358° |
| 2026-05-07 23:19 | 40.08109 | 116.59966 | 122 ft | 10 kts | 355° |
| 2026-05-07 23:19 | 40.08192 | 116.59951 | 120 ft | 14 kts | 352° |
| 2026-05-07 23:19 | 40.08319 | 116.59931 | 123 ft | 22 kts | 353° |
| 2026-05-07 23:20 | 40.08481 | 116.59905 | 122 ft | 25 kts | 352° |
| 2026-05-07 23:20 | 40.08659 | 116.59877 | 121 ft | 26 kts | 353° |
| 2026-05-07 23:20 | 40.08825 | 116.59852 | 122 ft | 26 kts | 353° |
| 2026-05-07 23:20 | 40.08978 | 116.59817 | 124 ft | 19 kts | 326° |
| 2026-05-07 23:21 | 40.08987 | 116.59742 | 122 ft | 1 kts | 266° |
| 2026-05-07 23:21 | 40.08986 | 116.59728 | 120 ft | 4 kts | 262° |
| 2026-05-07 23:21 | 40.08984 | 116.59715 | 123 ft | 0 kts | 261° |
| 2026-05-07 23:21 | 40.08982 | 116.59694 | 123 ft | 5 kts | 262° |
| 2026-05-07 23:22 | 40.08972 | 116.59588 | 124 ft | 17 kts | 261° |
| 2026-05-07 23:22 | 40.08884 | 116.59493 | 122 ft | 18 kts | 178° |
| 2026-05-07 23:22 | 40.08629 | 116.59532 | 122 ft | 78 kts | 172° |
| 2026-05-07 23:22 | 40.07808 | 116.59660 | 126 ft | 155 kts | 173° |
| 2026-05-07 23:23 | 40.06620 | 116.59843 | 521 ft | 184 kts | 173° |
| 2026-05-07 23:23 | 40.05237 | 116.60089 | 1098 ft | 215 kts | 172° |
| 2026-05-07 23:23 | 40.03686 | 116.60434 | 1956 ft | 235 kts | 170° |
| 2026-05-07 23:23 | 40.02023 | 116.60808 | 2807 ft | 253 kts | 174° |
| 2026-05-07 23:24 | 40.00211 | 116.61060 | 3283 ft | 260 kts | 175° |
| 2026-05-07 23:24 | 39.98378 | 116.61286 | 3431 ft | 269 kts | 175° |
| 2026-05-07 23:24 | 39.96549 | 116.61532 | 3555 ft | 272 kts | 174° |
| 2026-05-07 23:24 | 39.94613 | 116.61792 | 3698 ft | 274 kts | 175° |
| 2026-05-07 23:25 | 39.92712 | 116.62061 | 4335 ft | 276 kts | 174° |
| 2026-05-07 23:25 | 39.90842 | 116.62340 | 5511 ft | 274 kts | 174° |
| 2026-05-07 23:25 | 39.88905 | 116.62633 | 6568 ft | 280 kts | 175° |
| 2026-05-07 23:25 | 39.86972 | 116.62926 | 7498 ft | 287 kts | 175° |
| 2026-05-07 23:26 | 39.84941 | 116.63244 | 8465 ft | 293 kts | 175° |
| 2026-05-07 23:26 | 39.82920 | 116.63565 | 9376 ft | 301 kts | 176° |
| 2026-05-07 23:26 | 39.80815 | 116.63883 | 10330 ft | 307 kts | 176° |
| 2026-05-07 23:26 | 39.78622 | 116.64206 | 10867 ft | 329 kts | 176° |
| 2026-05-07 23:27 | 39.73785 | 116.64925 | 11914 ft | 363 kts | 176° |
| 2026-05-07 23:27 | 39.71259 | 116.65208 | 12784 ft | 366 kts | 185° |
| 2026-05-07 23:27 | 39.68782 | 116.64553 | 13632 ft | 363 kts | 206° |
| 2026-05-07 23:28 | 39.66658 | 116.62845 | 14422 ft | 359 kts | 227° |
| 2026-05-07 23:28 | 39.65147 | 116.60321 | 15182 ft | 352 kts | 248° |
| 2026-05-07 23:28 | 39.64434 | 116.57343 | 15935 ft | 344 kts | 268° |
| 2026-05-07 23:28 | 39.64395 | 116.54263 | 16735 ft | 342 kts | 277° |
| 2026-05-07 23:29 | 39.64503 | 116.51172 | 17564 ft | 345 kts | 277° |
| 2026-05-07 23:29 | 39.64532 | 116.48044 | 18367 ft | 349 kts | 275° |
| 2026-05-07 23:29 | 39.64451 | 116.44869 | 19065 ft | 353 kts | 272° |
| 2026-05-07 23:29 | 39.64294 | 116.41677 | 19791 ft | 356 kts | 271° |
| 2026-05-07 23:30 | 39.64104 | 116.38574 | 20460 ft | 358 kts | 271° |
| 2026-05-07 23:30 | 39.63891 | 116.35339 | 21142 ft | 361 kts | 271° |
| 2026-05-07 23:30 | 39.63673 | 116.32083 | 21825 ft | 364 kts | 270° |
| 2026-05-07 23:30 | 39.63453 | 116.28798 | 22505 ft | 366 kts | 270° |
| 2026-05-07 23:31 | 39.63233 | 116.25497 | 23146 ft | 369 kts | 270° |
| 2026-05-07 23:31 | 39.63011 | 116.22155 | 23766 ft | 372 kts | 270° |
| 2026-05-07 23:31 | 39.62787 | 116.18804 | 24361 ft | 373 kts | 270° |
| 2026-05-07 23:31 | 39.62561 | 116.15456 | 24981 ft | 373 kts | 270° |
| 2026-05-07 23:32 | 39.62338 | 116.12140 | 25555 ft | 375 kts | 270° |
| 2026-05-07 23:32 | 39.62110 | 116.08772 | 26111 ft | 376 kts | 270° |
| 2026-05-07 23:32 | 39.61880 | 116.05383 | 26664 ft | 377 kts | 270° |
| 2026-05-07 23:32 | 39.61649 | 116.01995 | 27202 ft | 378 kts | 270° |
| 2026-05-07 23:33 | 39.61416 | 115.98586 | 27730 ft | 379 kts | 271° |
| 2026-05-07 23:33 | 39.61181 | 115.95170 | 28232 ft | 381 kts | 271° |
| 2026-05-07 23:33 | 39.60946 | 115.91740 | 28640 ft | 384 kts | 270° |
| 2026-05-07 23:33 | 39.60714 | 115.88279 | 29082 ft | 384 kts | 272° |
| 2026-05-07 23:34 | 39.60783 | 115.84840 | 29538 ft | 379 kts | 281° |
| 2026-05-07 23:34 | 39.61294 | 115.81506 | 29932 ft | 377 kts | 289° |
| 2026-05-07 23:34 | 39.62227 | 115.78337 | 30310 ft | 377 kts | 297° |
| 2026-05-07 23:34 | 39.63465 | 115.75331 | 30671 ft | 378 kts | 299° |
| 2026-05-07 23:35 | 39.64713 | 115.72321 | 31007 ft | 380 kts | 299° |
| 2026-05-07 23:35 | 39.65979 | 115.69315 | 31142 ft | 380 kts | 302° |
| 2026-05-07 23:35 | 39.69489 | 115.64205 | 31155 ft | 384 kts | 319° |
| 2026-05-07 23:36 | 39.74243 | 115.60919 | 31159 ft | 395 kts | 332° |
| 2026-05-07 23:36 | 39.79303 | 115.58152 | 31164 ft | 394 kts | 332° |
| 2026-05-07 23:37 | 39.84352 | 115.55359 | 31160 ft | 395 kts | 332° |
| 2026-05-07 23:37 | 39.89393 | 115.52568 | 31163 ft | 394 kts | 332° |
| 2026-05-07 23:38 | 39.94054 | 115.49030 | 31170 ft | 384 kts | 316° |
| 2026-05-07 23:38 | 39.97382 | 115.43666 | 31171 ft | 382 kts | 298° |
| 2026-05-07 23:39 | 39.99044 | 115.37086 | 31172 ft | 388 kts | 281° |
| 2026-05-07 23:39 | 39.99438 | 115.30011 | 31163 ft | 393 kts | 278° |
| 2026-05-07 23:40 | 39.99807 | 115.22947 | 31171 ft | 392 kts | 278° |
| 2026-05-07 23:40 | 40.00167 | 115.15845 | 31171 ft | 393 kts | 278° |
| 2026-05-07 23:41 | 40.00523 | 115.08731 | 31184 ft | 394 kts | 278° |
| 2026-05-07 23:41 | 40.00873 | 115.01635 | 31184 ft | 392 kts | 278° |
| 2026-05-07 23:42 | 40.01226 | 114.94485 | 31195 ft | 395 kts | 278° |
| 2026-05-07 23:42 | 40.01571 | 114.87338 | 31193 ft | 395 kts | 277° |
| 2026-05-07 23:43 | 40.01911 | 114.80181 | 31188 ft | 395 kts | 277° |
| 2026-05-07 23:43 | 40.02247 | 114.73027 | 31196 ft | 395 kts | 277° |
| 2026-05-07 23:44 | 40.02579 | 114.65870 | 31194 ft | 395 kts | 277° |
| 2026-05-07 23:44 | 40.02904 | 114.58758 | 31196 ft | 395 kts | 277° |
| 2026-05-07 23:45 | 40.03228 | 114.51605 | 31194 ft | 395 kts | 277° |
| 2026-05-07 23:45 | 40.03546 | 114.44443 | 31193 ft | 395 kts | 277° |
| 2026-05-07 23:46 | 40.03860 | 114.37277 | 31182 ft | 396 kts | 277° |
| 2026-05-07 23:46 | 40.04171 | 114.30102 | 31188 ft | 396 kts | 277° |
| 2026-05-07 23:47 | 40.04478 | 114.22911 | 31185 ft | 396 kts | 277° |
| 2026-05-07 23:47 | 40.04780 | 114.15729 | 31185 ft | 396 kts | 277° |
| 2026-05-07 23:48 | 40.05200 | 114.08575 | 31189 ft | 395 kts | 279° |
| 2026-05-07 23:48 | 40.05774 | 114.01419 | 31189 ft | 397 kts | 279° |
| 2026-05-07 23:49 | 40.06320 | 113.94255 | 31185 ft | 397 kts | 279° |
| 2026-05-07 23:49 | 40.06846 | 113.87055 | 31179 ft | 401 kts | 278° |
| 2026-05-07 23:50 | 40.07363 | 113.79861 | 31185 ft | 400 kts | 278° |
| 2026-05-07 23:50 | 40.07878 | 113.72626 | 31175 ft | 401 kts | 278° |
| 2026-05-07 23:51 | 40.08391 | 113.65369 | 31186 ft | 401 kts | 278° |
| 2026-05-07 23:51 | 40.08899 | 113.58112 | 31179 ft | 401 kts | 278° |
| 2026-05-07 23:52 | 40.09402 | 113.50855 | 31175 ft | 401 kts | 278° |
| 2026-05-07 23:52 | 40.09901 | 113.43601 | 31180 ft | 401 kts | 278° |
| 2026-05-07 23:53 | 40.10397 | 113.36341 | 31172 ft | 402 kts | 278° |
| 2026-05-07 23:53 | 40.10888 | 113.29069 | 31177 ft | 402 kts | 278° |
| 2026-05-07 23:54 | 40.11375 | 113.21795 | 31172 ft | 402 kts | 278° |
| 2026-05-07 23:54 | 40.11856 | 113.14526 | 31175 ft | 402 kts | 278° |
| 2026-05-07 23:55 | 40.12334 | 113.07256 | 31165 ft | 402 kts | 278° |
| 2026-05-07 23:55 | 40.12806 | 112.99982 | 31165 ft | 402 kts | 278° |
| 2026-05-07 23:56 | 40.13270 | 112.92756 | 31147 ft | 402 kts | 278° |
| 2026-05-07 23:56 | 40.13734 | 112.85472 | 31158 ft | 402 kts | 278° |
| 2026-05-07 23:57 | 40.14193 | 112.78189 | 31137 ft | 402 kts | 278° |
| 2026-05-07 23:57 | 40.14652 | 112.70862 | 31153 ft | 405 kts | 277° |
| 2026-05-07 23:58 | 40.15104 | 112.63538 | 31153 ft | 405 kts | 277° |
| 2026-05-07 23:58 | 40.15476 | 112.57449 | 31157 ft | 404 kts | 277° |
| 2026-05-07 23:59 | 40.15879 | 112.50109 | 31155 ft | 406 kts | 274° |
| 2026-05-07 23:59 | 40.15270 | 112.42730 | 31154 ft | 416 kts | 261° |
| 2026-05-08 00:00 | 40.13412 | 112.35498 | 31165 ft | 420 kts | 255° |
| 2026-05-08 00:00 | 40.11419 | 112.28338 | 31157 ft | 420 kts | 255° |
| 2026-05-08 00:01 | 40.09423 | 112.21170 | 31154 ft | 420 kts | 255° |
| 2026-05-08 00:01 | 40.07407 | 112.14003 | 31155 ft | 420 kts | 255° |
| 2026-05-08 00:02 | 40.05394 | 112.06839 | 31158 ft | 420 kts | 255° |
| 2026-05-08 00:02 | 40.03388 | 111.99664 | 31155 ft | 421 kts | 255° |
| 2026-05-08 00:03 | 40.01368 | 111.92485 | 31156 ft | 421 kts | 255° |
| 2026-05-08 00:03 | 39.99006 | 111.85530 | 31154 ft | 429 kts | 243° |
| 2026-05-08 00:04 | 39.95042 | 111.79587 | 31157 ft | 443 kts | 226° |
| 2026-05-08 00:04 | 39.90289 | 111.74467 | 31154 ft | 443 kts | 226° |
| 2026-05-08 00:05 | 39.85556 | 111.69345 | 31162 ft | 442 kts | 226° |
| 2026-05-08 00:05 | 39.80818 | 111.64223 | 31162 ft | 442 kts | 226° |
| 2026-05-08 00:06 | 39.76087 | 111.59117 | 31167 ft | 443 kts | 226° |
| 2026-05-08 00:06 | 39.71347 | 111.54015 | 31159 ft | 441 kts | 226° |
| 2026-05-08 00:07 | 39.66625 | 111.48942 | 31169 ft | 441 kts | 226° |
| 2026-05-08 00:07 | 39.61891 | 111.43862 | 31174 ft | 441 kts | 226° |
| 2026-05-08 00:08 | 39.57160 | 111.38795 | 31175 ft | 441 kts | 226° |
| 2026-05-08 00:08 | 39.52460 | 111.33773 | 31172 ft | 440 kts | 226° |
| 2026-05-08 00:09 | 39.47744 | 111.28742 | 31183 ft | 440 kts | 226° |
| 2026-05-08 00:09 | 39.43014 | 111.23706 | 31179 ft | 440 kts | 226° |
| 2026-05-08 00:10 | 39.38287 | 111.18680 | 31180 ft | 440 kts | 226° |
| 2026-05-08 00:10 | 39.33577 | 111.13688 | 31169 ft | 436 kts | 227° |
| 2026-05-08 00:11 | 39.28885 | 111.08718 | 31178 ft | 436 kts | 227° |
| 2026-05-08 00:11 | 39.24189 | 111.03750 | 31180 ft | 436 kts | 227° |
| 2026-05-08 00:12 | 39.19660 | 110.98595 | 31188 ft | 427 kts | 237° |
| 2026-05-08 00:12 | 39.17986 | 110.95502 | 31178 ft | 416 kts | 248° |
| 2026-05-08 00:12 | 39.16853 | 110.92118 | 31180 ft | 408 kts | 258° |
| 2026-05-08 00:13 | 39.16203 | 110.85031 | 31189 ft | 398 kts | 276° |
| 2026-05-08 00:13 | 39.16568 | 110.77918 | 31201 ft | 398 kts | 276° |
| 2026-05-08 00:14 | 39.16910 | 110.70792 | 31183 ft | 398 kts | 276° |
| 2026-05-08 00:14 | 39.17245 | 110.63653 | 31184 ft | 398 kts | 276° |
| 2026-05-08 00:15 | 39.17574 | 110.56516 | 31177 ft | 399 kts | 276° |
| 2026-05-08 00:15 | 39.17900 | 110.49393 | 31177 ft | 399 kts | 276° |
| 2026-05-08 00:16 | 39.18221 | 110.42283 | 31185 ft | 395 kts | 276° |
| 2026-05-08 00:16 | 39.18536 | 110.35206 | 31173 ft | 396 kts | 276° |
| 2026-05-08 00:17 | 39.18844 | 110.28180 | 31178 ft | 395 kts | 276° |
| 2026-05-08 00:17 | 39.19151 | 110.21098 | 31170 ft | 396 kts | 276° |
| 2026-05-08 00:18 | 39.19456 | 110.14017 | 31170 ft | 396 kts | 276° |
| 2026-05-08 00:18 | 39.19803 | 110.06927 | 31183 ft | 396 kts | 276° |
| 2026-05-08 00:19 | 39.20149 | 109.99839 | 31169 ft | 396 kts | 276° |
| 2026-05-08 00:19 | 39.20487 | 109.92752 | 31167 ft | 396 kts | 276° |
| 2026-05-08 00:20 | 39.20818 | 109.85660 | 31165 ft | 396 kts | 276° |
| 2026-05-08 00:20 | 39.21145 | 109.78573 | 31165 ft | 396 kts | 276° |
| 2026-05-08 00:21 | 39.21469 | 109.71470 | 31164 ft | 396 kts | 276° |
| 2026-05-08 00:21 | 39.21784 | 109.64423 | 31171 ft | 392 kts | 276° |
| 2026-05-08 00:22 | 39.22096 | 109.57386 | 31172 ft | 393 kts | 276° |
| 2026-05-08 00:22 | 39.22404 | 109.50344 | 31169 ft | 393 kts | 276° |
| 2026-05-08 00:23 | 39.22686 | 109.43325 | 31172 ft | 394 kts | 275° |
| 2026-05-08 00:23 | 39.22952 | 109.36261 | 31167 ft | 394 kts | 275° |
| 2026-05-08 00:24 | 39.23217 | 109.29194 | 31170 ft | 394 kts | 275° |
| 2026-05-08 00:24 | 39.23479 | 109.22124 | 31168 ft | 394 kts | 275° |
| 2026-05-08 00:25 | 39.23738 | 109.15053 | 31169 ft | 394 kts | 275° |
| 2026-05-08 00:25 | 39.23992 | 109.07979 | 31165 ft | 395 kts | 275° |
| 2026-05-08 00:26 | 39.24242 | 109.00907 | 31168 ft | 395 kts | 275° |
| 2026-05-08 00:26 | 39.24486 | 108.93873 | 31160 ft | 395 kts | 275° |
| 2026-05-08 00:27 | 39.24728 | 108.86790 | 31162 ft | 395 kts | 275° |
| 2026-05-08 00:27 | 39.24965 | 108.79708 | 31157 ft | 395 kts | 275° |
| 2026-05-08 00:28 | 39.25201 | 108.72625 | 31158 ft | 396 kts | 275° |
| 2026-05-08 00:28 | 39.25433 | 108.65529 | 31158 ft | 396 kts | 275° |
| 2026-05-08 00:29 | 39.25660 | 108.58437 | 31156 ft | 396 kts | 275° |
| 2026-05-08 00:29 | 39.25883 | 108.51339 | 31155 ft | 396 kts | 275° |
| 2026-05-08 00:30 | 39.26101 | 108.44237 | 31155 ft | 396 kts | 275° |
| 2026-05-08 00:30 | 39.26315 | 108.37180 | 31155 ft | 396 kts | 275° |
| 2026-05-08 00:31 | 39.26525 | 108.30071 | 31156 ft | 396 kts | 275° |
| 2026-05-08 00:31 | 39.26731 | 108.22958 | 31155 ft | 397 kts | 274° |
| 2026-05-08 00:32 | 39.26932 | 108.15839 | 31159 ft | 397 kts | 274° |
| 2026-05-08 00:32 | 39.27130 | 108.08727 | 31158 ft | 397 kts | 274° |
| 2026-05-08 00:33 | 39.27324 | 108.01604 | 31147 ft | 399 kts | 275° |
| 2026-05-08 00:33 | 39.27515 | 107.94449 | 31161 ft | 399 kts | 275° |
| 2026-05-08 00:34 | 39.27701 | 107.87297 | 31165 ft | 399 kts | 274° |
| 2026-05-08 00:34 | 39.27884 | 107.80148 | 31164 ft | 399 kts | 274° |
| 2026-05-08 00:35 | 39.28061 | 107.72995 | 31158 ft | 399 kts | 274° |
| 2026-05-08 00:35 | 39.27815 | 107.65828 | 31166 ft | 405 kts | 262° |
| 2026-05-08 00:36 | 39.25660 | 107.59088 | 31166 ft | 419 kts | 243° |
| 2026-05-08 00:36 | 39.22289 | 107.52908 | 31172 ft | 421 kts | 241° |
| 2026-05-08 00:37 | 39.18921 | 107.46734 | 31163 ft | 421 kts | 241° |
| 2026-05-08 00:38 | 39.13871 | 107.37465 | 31158 ft | 424 kts | 241° |
| 2026-05-08 00:38 | 39.10487 | 107.31258 | 31162 ft | 423 kts | 241° |
| 2026-05-08 00:39 | 39.07090 | 107.25069 | 31161 ft | 423 kts | 240° |
| 2026-05-08 00:39 | 39.03709 | 107.18924 | 31161 ft | 423 kts | 240° |
| 2026-05-08 00:40 | 39.00301 | 107.12739 | 31158 ft | 423 kts | 240° |
| 2026-05-08 00:40 | 38.96894 | 107.06565 | 31156 ft | 425 kts | 240° |
| 2026-05-08 00:41 | 38.93466 | 107.00368 | 31158 ft | 425 kts | 240° |
| 2026-05-08 00:41 | 38.90031 | 106.94177 | 31158 ft | 425 kts | 240° |
| 2026-05-08 00:42 | 38.86599 | 106.87990 | 31155 ft | 425 kts | 240° |
| 2026-05-08 00:42 | 38.83164 | 106.81812 | 31155 ft | 425 kts | 240° |
| 2026-05-08 00:43 | 38.79721 | 106.75631 | 31153 ft | 426 kts | 239° |
| 2026-05-08 00:43 | 38.76273 | 106.69452 | 31151 ft | 426 kts | 239° |
| 2026-05-08 00:44 | 38.72827 | 106.63290 | 31159 ft | 425 kts | 239° |
| 2026-05-08 00:44 | 38.69378 | 106.57137 | 31158 ft | 426 kts | 239° |
| 2026-05-08 00:45 | 38.65922 | 106.50984 | 31158 ft | 426 kts | 239° |
| 2026-05-08 00:45 | 38.62481 | 106.44869 | 31151 ft | 426 kts | 239° |
| 2026-05-08 00:46 | 38.59022 | 106.38731 | 31158 ft | 425 kts | 239° |
| 2026-05-08 00:46 | 38.55561 | 106.32600 | 31157 ft | 426 kts | 238° |
| 2026-05-08 00:47 | 38.52088 | 106.26463 | 31163 ft | 426 kts | 238° |
| 2026-05-08 00:47 | 38.49200 | 106.21368 | 31161 ft | 426 kts | 238° |
| 2026-05-08 00:48 | 38.45724 | 106.15245 | 31158 ft | 426 kts | 238° |
| 2026-05-08 00:48 | 38.42223 | 106.09115 | 31157 ft | 428 kts | 237° |
| 2026-05-08 00:49 | 38.38608 | 106.03073 | 31161 ft | 428 kts | 237° |
| 2026-05-08 00:49 | 38.34987 | 105.97048 | 31157 ft | 428 kts | 237° |
| 2026-05-08 00:50 | 38.31373 | 105.91014 | 31156 ft | 429 kts | 237° |
| 2026-05-08 00:50 | 38.27755 | 105.84976 | 31155 ft | 429 kts | 237° |
| 2026-05-08 00:51 | 38.24124 | 105.78923 | 31138 ft | 431 kts | 236° |
| 2026-05-08 00:51 | 38.20510 | 105.72917 | 31157 ft | 430 kts | 236° |
| 2026-05-08 00:52 | 38.16867 | 105.66872 | 31147 ft | 430 kts | 236° |
| 2026-05-08 00:52 | 38.13224 | 105.60836 | 31155 ft | 430 kts | 236° |
| 2026-05-08 00:53 | 38.09578 | 105.54807 | 31155 ft | 430 kts | 236° |
| 2026-05-08 00:53 | 38.05918 | 105.48765 | 31155 ft | 433 kts | 236° |
| 2026-05-08 00:54 | 38.02251 | 105.42725 | 31153 ft | 432 kts | 236° |
| 2026-05-08 00:54 | 37.98578 | 105.36686 | 31164 ft | 432 kts | 236° |
| 2026-05-08 00:55 | 37.94903 | 105.30653 | 31161 ft | 432 kts | 236° |
| 2026-05-08 00:55 | 37.91217 | 105.24611 | 31166 ft | 433 kts | 236° |
| 2026-05-08 00:56 | 37.87553 | 105.18618 | 31166 ft | 433 kts | 236° |
| 2026-05-08 00:56 | 37.83863 | 105.12595 | 31169 ft | 433 kts | 236° |
| 2026-05-08 00:57 | 37.80169 | 105.06575 | 31169 ft | 433 kts | 236° |
| 2026-05-08 00:57 | 37.76474 | 105.00565 | 31169 ft | 433 kts | 236° |
| 2026-05-08 00:58 | 37.72773 | 104.94556 | 31168 ft | 433 kts | 236° |
| 2026-05-08 00:58 | 37.69061 | 104.88539 | 31173 ft | 436 kts | 236° |
| 2026-05-08 00:59 | 37.65335 | 104.82512 | 31175 ft | 435 kts | 236° |
| 2026-05-08 00:59 | 37.61611 | 104.76499 | 31180 ft | 435 kts | 236° |
| 2026-05-08 01:00 | 37.57877 | 104.70481 | 31175 ft | 435 kts | 236° |
| 2026-05-08 01:00 | 37.54173 | 104.64520 | 31188 ft | 435 kts | 236° |
| 2026-05-08 01:01 | 37.50462 | 104.58559 | 31187 ft | 436 kts | 236° |
| 2026-05-08 01:01 | 37.46684 | 104.52500 | 31187 ft | 436 kts | 236° |
| 2026-05-08 01:02 | 37.42954 | 104.46464 | 31192 ft | 436 kts | 236° |
| 2026-05-08 01:02 | 37.39299 | 104.40372 | 31197 ft | 436 kts | 237° |
| 2026-05-08 01:03 | 37.35640 | 104.34295 | 31197 ft | 436 kts | 236° |
| 2026-05-08 01:03 | 37.31963 | 104.28221 | 31195 ft | 436 kts | 236° |
| 2026-05-08 01:04 | 37.28294 | 104.22172 | 31210 ft | 438 kts | 236° |
| 2026-05-08 01:04 | 37.24605 | 104.16106 | 31212 ft | 437 kts | 236° |
| 2026-05-08 01:05 | 37.20957 | 104.10014 | 31222 ft | 435 kts | 239° |
| 2026-05-08 01:05 | 37.18140 | 104.03342 | 31226 ft | 431 kts | 251° |
| 2026-05-08 01:06 | 37.15917 | 103.96375 | 31235 ft | 430 kts | 251° |
| 2026-05-08 01:06 | 37.13669 | 103.89418 | 31240 ft | 430 kts | 250° |
| 2026-05-08 01:07 | 37.11410 | 103.82453 | 31240 ft | 431 kts | 250° |
| 2026-05-08 01:07 | 37.09148 | 103.75496 | 31257 ft | 431 kts | 250° |
| 2026-05-08 01:08 | 37.06880 | 103.68537 | 31256 ft | 431 kts | 250° |
| 2026-05-08 01:08 | 37.04625 | 103.61633 | 31266 ft | 431 kts | 250° |
| 2026-05-08 01:09 | 37.02350 | 103.54683 | 31279 ft | 431 kts | 250° |
| 2026-05-08 01:09 | 37.00071 | 103.47738 | 31286 ft | 430 kts | 250° |
| 2026-05-08 01:10 | 36.97796 | 103.40821 | 31286 ft | 430 kts | 250° |
| 2026-05-08 01:10 | 36.95516 | 103.33904 | 31284 ft | 431 kts | 250° |
| 2026-05-08 01:11 | 36.93224 | 103.26967 | 31300 ft | 431 kts | 250° |
| 2026-05-08 01:11 | 36.90973 | 103.20009 | 31302 ft | 431 kts | 250° |
| 2026-05-08 01:12 | 36.88731 | 103.13065 | 31298 ft | 431 kts | 250° |
| 2026-05-08 01:12 | 36.86485 | 103.06143 | 31305 ft | 430 kts | 250° |
| 2026-05-08 01:13 | 36.84231 | 102.99222 | 31303 ft | 430 kts | 250° |
| 2026-05-08 01:13 | 36.81986 | 102.92344 | 31304 ft | 431 kts | 250° |
| 2026-05-08 01:14 | 36.79741 | 102.85430 | 31300 ft | 430 kts | 250° |
| 2026-05-08 01:14 | 36.77511 | 102.78507 | 31304 ft | 431 kts | 251° |
| 2026-05-08 01:15 | 36.75266 | 102.71569 | 31308 ft | 431 kts | 251° |
| 2026-05-08 01:15 | 36.73014 | 102.64635 | 31303 ft | 431 kts | 250° |
| 2026-05-08 01:16 | 36.70760 | 102.57711 | 31318 ft | 431 kts | 250° |
| 2026-05-08 01:16 | 36.68499 | 102.50778 | 31311 ft | 432 kts | 250° |
| 2026-05-08 01:17 | 36.66237 | 102.43866 | 31309 ft | 431 kts | 250° |
| 2026-05-08 01:17 | 36.63967 | 102.36937 | 31299 ft | 431 kts | 250° |
| 2026-05-08 01:18 | 36.61712 | 102.30077 | 31304 ft | 431 kts | 250° |
| 2026-05-08 01:18 | 36.59441 | 102.23175 | 31296 ft | 432 kts | 250° |
| 2026-05-08 01:19 | 36.57155 | 102.16251 | 31298 ft | 432 kts | 250° |
| 2026-05-08 01:19 | 36.54866 | 102.09334 | 31300 ft | 432 kts | 250° |
| 2026-05-08 01:20 | 36.52215 | 102.02622 | 31296 ft | 435 kts | 241° |
| 2026-05-08 01:20 | 36.48569 | 101.96579 | 31298 ft | 438 kts | 234° |
| 2026-05-08 01:21 | 36.44728 | 101.90680 | 31292 ft | 439 kts | 235° |
| 2026-05-08 01:21 | 36.40907 | 101.84773 | 31292 ft | 438 kts | 235° |
| 2026-05-08 01:22 | 36.37079 | 101.78860 | 31289 ft | 440 kts | 235° |
| 2026-05-08 01:22 | 36.33242 | 101.72948 | 31287 ft | 440 kts | 234° |
| 2026-05-08 01:23 | 36.29430 | 101.67084 | 31289 ft | 440 kts | 234° |
| 2026-05-08 01:23 | 36.25593 | 101.61190 | 31292 ft | 439 kts | 234° |
| 2026-05-08 01:24 | 36.21760 | 101.55314 | 31291 ft | 439 kts | 234° |
| 2026-05-08 01:24 | 36.17920 | 101.49442 | 31292 ft | 439 kts | 234° |
| 2026-05-08 01:25 | 36.14076 | 101.43575 | 31297 ft | 439 kts | 234° |
| 2026-05-08 01:25 | 36.10221 | 101.37702 | 31293 ft | 439 kts | 234° |
| 2026-05-08 01:26 | 36.06370 | 101.31847 | 31291 ft | 439 kts | 234° |
| 2026-05-08 01:26 | 36.02527 | 101.26009 | 31286 ft | 438 kts | 234° |
| 2026-05-08 01:27 | 35.98675 | 101.20178 | 31289 ft | 438 kts | 234° |
| 2026-05-08 01:27 | 35.94846 | 101.14391 | 31288 ft | 438 kts | 234° |
| 2026-05-08 01:28 | 35.90993 | 101.08572 | 31294 ft | 438 kts | 234° |
| 2026-05-08 01:28 | 35.87138 | 101.02758 | 31295 ft | 438 kts | 234° |
| 2026-05-08 01:29 | 35.83276 | 100.96945 | 31289 ft | 438 kts | 234° |
| 2026-05-08 01:29 | 35.79415 | 100.91138 | 31288 ft | 438 kts | 234° |
| 2026-05-08 01:30 | 35.75553 | 100.85336 | 31283 ft | 438 kts | 233° |
| 2026-05-08 01:30 | 35.71678 | 100.79530 | 31293 ft | 438 kts | 233° |
| 2026-05-08 01:31 | 35.67801 | 100.73735 | 31294 ft | 438 kts | 233° |
| 2026-05-08 01:31 | 35.63926 | 100.67952 | 31300 ft | 438 kts | 233° |
| 2026-05-08 01:32 | 35.60067 | 100.62203 | 31302 ft | 438 kts | 233° |
| 2026-05-08 01:32 | 35.56183 | 100.56425 | 31308 ft | 438 kts | 233° |
| 2026-05-08 01:33 | 35.52310 | 100.50674 | 31305 ft | 437 kts | 233° |
| 2026-05-08 01:33 | 35.48437 | 100.44932 | 31316 ft | 437 kts | 233° |
| 2026-05-08 01:34 | 35.44558 | 100.39189 | 31319 ft | 437 kts | 233° |
| 2026-05-08 01:34 | 35.40677 | 100.33458 | 31314 ft | 437 kts | 233° |
| 2026-05-08 01:35 | 35.36796 | 100.27730 | 31315 ft | 437 kts | 233° |
| 2026-05-08 01:35 | 35.32907 | 100.22005 | 31314 ft | 436 kts | 233° |
| 2026-05-08 01:36 | 35.29025 | 100.16301 | 31320 ft | 435 kts | 233° |
| 2026-05-08 01:36 | 35.25167 | 100.10639 | 31320 ft | 436 kts | 233° |
| 2026-05-08 01:37 | 35.21280 | 100.04944 | 31322 ft | 436 kts | 233° |
| 2026-05-08 01:37 | 35.18023 | 100.00178 | 31327 ft | 436 kts | 233° |
| 2026-05-08 01:38 | 35.14136 | 99.94496 | 31332 ft | 436 kts | 233° |
| 2026-05-08 01:38 | 35.10263 | 99.88851 | 31334 ft | 436 kts | 233° |
| 2026-05-08 01:39 | 35.06366 | 99.83179 | 31335 ft | 436 kts | 233° |
| 2026-05-08 01:39 | 35.02471 | 99.77515 | 31338 ft | 435 kts | 233° |
| 2026-05-08 01:40 | 34.98573 | 99.71859 | 31341 ft | 435 kts | 233° |
| 2026-05-08 01:40 | 34.94674 | 99.66210 | 31343 ft | 435 kts | 233° |
| 2026-05-08 01:41 | 34.90772 | 99.60563 | 31337 ft | 436 kts | 233° |
| 2026-05-08 01:41 | 34.86862 | 99.54922 | 31330 ft | 435 kts | 233° |
| 2026-05-08 01:42 | 34.82949 | 99.49276 | 31340 ft | 436 kts | 233° |
| 2026-05-08 01:42 | 34.79026 | 99.43626 | 31344 ft | 436 kts | 232° |
| 2026-05-08 01:43 | 34.75116 | 99.38008 | 31334 ft | 435 kts | 232° |
| 2026-05-08 01:43 | 34.71199 | 99.32384 | 31335 ft | 435 kts | 232° |
| 2026-05-08 01:44 | 34.67286 | 99.26777 | 31325 ft | 435 kts | 232° |
| 2026-05-08 01:44 | 34.63364 | 99.21167 | 31311 ft | 437 kts | 232° |
| 2026-05-08 01:45 | 34.59426 | 99.15542 | 31301 ft | 437 kts | 232° |
| 2026-05-08 01:45 | 34.55489 | 99.09928 | 31302 ft | 437 kts | 232° |
| 2026-05-08 01:46 | 34.51552 | 99.04325 | 31292 ft | 435 kts | 232° |
| 2026-05-08 01:46 | 34.47645 | 98.98771 | 31283 ft | 436 kts | 232° |
| 2026-05-08 01:47 | 34.43709 | 98.93184 | 31289 ft | 436 kts | 232° |
| 2026-05-08 01:47 | 34.39766 | 98.87598 | 31284 ft | 437 kts | 232° |
| 2026-05-08 01:48 | 34.33832 | 98.79207 | 31278 ft | 437 kts | 232° |
| 2026-05-08 01:48 | 34.29873 | 98.73618 | 31289 ft | 437 kts | 232° |
| 2026-05-08 01:49 | 34.25918 | 98.68044 | 31280 ft | 435 kts | 232° |
| 2026-05-08 01:49 | 34.21963 | 98.62481 | 31300 ft | 436 kts | 232° |
| 2026-05-08 01:50 | 34.18011 | 98.56930 | 31294 ft | 436 kts | 232° |
| 2026-05-08 01:50 | 34.14070 | 98.51402 | 31297 ft | 437 kts | 232° |
| 2026-05-08 01:51 | 34.10072 | 98.45806 | 31300 ft | 437 kts | 232° |
| 2026-05-08 01:51 | 34.06096 | 98.40247 | 31300 ft | 437 kts | 232° |
| 2026-05-08 01:52 | 34.02146 | 98.34733 | 31299 ft | 437 kts | 232° |
| 2026-05-08 01:52 | 33.98175 | 98.29197 | 31299 ft | 435 kts | 231° |
| 2026-05-08 01:53 | 33.94200 | 98.23668 | 31301 ft | 436 kts | 231° |
| 2026-05-08 01:53 | 33.90236 | 98.18153 | 31307 ft | 438 kts | 231° |
| 2026-05-08 01:54 | 33.86243 | 98.12614 | 31303 ft | 438 kts | 231° |
| 2026-05-08 01:54 | 33.82245 | 98.07079 | 31296 ft | 438 kts | 231° |
| 2026-05-08 01:55 | 33.78244 | 98.01547 | 31295 ft | 438 kts | 231° |
| 2026-05-08 01:55 | 33.74245 | 97.96027 | 31290 ft | 437 kts | 231° |
| 2026-05-08 01:56 | 33.70286 | 97.90571 | 31287 ft | 436 kts | 231° |
| 2026-05-08 01:56 | 33.66296 | 97.85076 | 31285 ft | 436 kts | 231° |
| 2026-05-08 01:57 | 33.62310 | 97.79596 | 31281 ft | 436 kts | 231° |
| 2026-05-08 01:57 | 33.58318 | 97.74119 | 31280 ft | 436 kts | 231° |
| 2026-05-08 01:58 | 33.54318 | 97.68639 | 31283 ft | 436 kts | 231° |
| 2026-05-08 01:58 | 33.50333 | 97.63187 | 31285 ft | 436 kts | 231° |
| 2026-05-08 01:59 | 33.46323 | 97.57713 | 31285 ft | 434 kts | 230° |
| 2026-05-08 01:59 | 33.42298 | 97.52213 | 31277 ft | 445 kts | 229° |
| 2026-05-08 02:00 | 33.38226 | 97.46661 | 31280 ft | 444 kts | 229° |
| 2026-05-08 02:00 | 33.34150 | 97.41118 | 31274 ft | 444 kts | 229° |
| 2026-05-08 02:01 | 33.30068 | 97.35575 | 31271 ft | 444 kts | 229° |
| 2026-05-08 02:01 | 33.25982 | 97.30030 | 31268 ft | 444 kts | 229° |
| 2026-05-08 02:02 | 33.21896 | 97.24501 | 31262 ft | 444 kts | 229° |
| 2026-05-08 02:02 | 33.17788 | 97.18949 | 31265 ft | 448 kts | 229° |
| 2026-05-08 02:03 | 33.13665 | 97.13389 | 31256 ft | 447 kts | 229° |
| 2026-05-08 02:03 | 33.09544 | 97.07832 | 31256 ft | 447 kts | 229° |
| 2026-05-08 02:04 | 33.05419 | 97.02290 | 31252 ft | 447 kts | 229° |
| 2026-05-08 02:04 | 33.01290 | 96.96749 | 31252 ft | 447 kts | 229° |
| 2026-05-08 02:05 | 32.97157 | 96.91206 | 31254 ft | 447 kts | 229° |
| 2026-05-08 02:05 | 32.92999 | 96.85641 | 31246 ft | 451 kts | 229° |
| 2026-05-08 02:06 | 32.88853 | 96.80100 | 31245 ft | 452 kts | 229° |
| 2026-05-08 02:06 | 32.84669 | 96.74516 | 31231 ft | 452 kts | 229° |
| 2026-05-08 02:07 | 32.80489 | 96.68944 | 31227 ft | 452 kts | 229° |
| 2026-05-08 02:07 | 32.76306 | 96.63377 | 31213 ft | 452 kts | 229° |
| 2026-05-08 02:08 | 32.72117 | 96.57811 | 31217 ft | 452 kts | 229° |
| 2026-05-08 02:08 | 32.67956 | 96.52291 | 31212 ft | 446 kts | 229° |
| 2026-05-08 02:09 | 32.63799 | 96.46786 | 31206 ft | 448 kts | 229° |
| 2026-05-08 02:09 | 32.59648 | 96.41295 | 31204 ft | 451 kts | 229° |
| 2026-05-08 02:10 | 32.55461 | 96.35766 | 31194 ft | 450 kts | 229° |
| 2026-05-08 02:10 | 32.51274 | 96.30246 | 31194 ft | 450 kts | 229° |
| 2026-05-08 02:11 | 32.47088 | 96.24733 | 31193 ft | 450 kts | 229° |
| 2026-05-08 02:11 | 32.42913 | 96.19244 | 31196 ft | 446 kts | 229° |
| 2026-05-08 02:12 | 32.38751 | 96.13780 | 31192 ft | 447 kts | 229° |
| 2026-05-08 02:12 | 32.34583 | 96.08321 | 31192 ft | 447 kts | 229° |
| 2026-05-08 02:13 | 32.30409 | 96.02852 | 31188 ft | 448 kts | 229° |
| 2026-05-08 02:13 | 32.26232 | 95.97390 | 31189 ft | 448 kts | 229° |
| 2026-05-08 02:14 | 32.22058 | 95.91943 | 31182 ft | 447 kts | 229° |
| 2026-05-08 02:14 | 32.17867 | 95.86482 | 31183 ft | 449 kts | 228° |
| 2026-05-08 02:15 | 32.13699 | 95.81060 | 31172 ft | 448 kts | 228° |
| 2026-05-08 02:15 | 32.09507 | 95.75613 | 31183 ft | 448 kts | 228° |
| 2026-05-08 02:16 | 32.05309 | 95.70162 | 31171 ft | 449 kts | 229° |
| 2026-05-08 02:16 | 32.01099 | 95.64709 | 31173 ft | 449 kts | 228° |
| 2026-05-08 02:17 | 31.96887 | 95.59263 | 31181 ft | 450 kts | 228° |
| 2026-05-08 02:17 | 31.92668 | 95.53812 | 31172 ft | 450 kts | 228° |
| 2026-05-08 02:18 | 31.88445 | 95.48365 | 31176 ft | 450 kts | 228° |
| 2026-05-08 02:18 | 31.84218 | 95.42920 | 31162 ft | 450 kts | 228° |
| 2026-05-08 02:19 | 31.79992 | 95.37485 | 31157 ft | 450 kts | 228° |
| 2026-05-08 02:19 | 31.75789 | 95.32089 | 31164 ft | 452 kts | 227° |
| 2026-05-08 02:20 | 31.71527 | 95.26625 | 31151 ft | 453 kts | 228° |
| 2026-05-08 02:20 | 31.67277 | 95.21183 | 31150 ft | 450 kts | 227° |
| 2026-05-08 02:21 | 31.63038 | 95.15762 | 31131 ft | 451 kts | 227° |
| 2026-05-08 02:21 | 31.58798 | 95.10347 | 31134 ft | 451 kts | 227° |
| 2026-05-08 02:22 | 31.54546 | 95.04928 | 31134 ft | 451 kts | 227° |
| 2026-05-08 02:22 | 31.50296 | 94.99519 | 31114 ft | 450 kts | 227° |
| 2026-05-08 02:23 | 31.46039 | 94.94114 | 31120 ft | 452 kts | 227° |
| 2026-05-08 02:23 | 31.41766 | 94.88691 | 31101 ft | 450 kts | 228° |
| 2026-05-08 02:24 | 31.37542 | 94.83336 | 31094 ft | 448 kts | 228° |
| 2026-05-08 02:24 | 31.33332 | 94.78001 | 31089 ft | 448 kts | 228° |
| 2026-05-08 02:25 | 31.29096 | 94.72653 | 31082 ft | 448 kts | 228° |
| 2026-05-08 02:25 | 31.24857 | 94.67302 | 31081 ft | 448 kts | 228° |
| 2026-05-08 02:26 | 31.21334 | 94.62861 | 31094 ft | 448 kts | 228° |
| 2026-05-08 02:26 | 31.17093 | 94.57520 | 31101 ft | 448 kts | 227° |
| 2026-05-08 02:27 | 31.12832 | 94.52158 | 31096 ft | 450 kts | 227° |
| 2026-05-08 02:27 | 31.08568 | 94.46816 | 31135 ft | 450 kts | 227° |
| 2026-05-08 02:28 | 31.04304 | 94.41471 | 31144 ft | 450 kts | 227° |
| 2026-05-08 02:28 | 31.00038 | 94.36125 | 31139 ft | 450 kts | 227° |
| 2026-05-08 02:29 | 30.95776 | 94.30791 | 31130 ft | 450 kts | 227° |
| 2026-05-08 02:29 | 30.91529 | 94.25492 | 31148 ft | 450 kts | 227° |
| 2026-05-08 02:30 | 30.87286 | 94.20211 | 31188 ft | 441 kts | 228° |
| 2026-05-08 02:30 | 30.83047 | 94.14937 | 31179 ft | 448 kts | 228° |
| 2026-05-08 02:31 | 30.78788 | 94.09640 | 31183 ft | 447 kts | 228° |
| 2026-05-08 02:31 | 30.74535 | 94.04358 | 31201 ft | 448 kts | 228° |
| 2026-05-08 02:32 | 30.70276 | 93.99078 | 31213 ft | 448 kts | 228° |
| 2026-05-08 02:32 | 30.66009 | 93.93793 | 31214 ft | 447 kts | 227° |
| 2026-05-08 02:33 | 30.61745 | 93.88521 | 31212 ft | 445 kts | 228° |
| 2026-05-08 02:33 | 30.57553 | 93.83341 | 31204 ft | 440 kts | 229° |
| 2026-05-08 02:34 | 30.53366 | 93.78174 | 31213 ft | 445 kts | 228° |
| 2026-05-08 02:34 | 30.49107 | 93.72922 | 31207 ft | 443 kts | 228° |
| 2026-05-08 02:35 | 30.44901 | 93.67749 | 31226 ft | 444 kts | 228° |
| 2026-05-08 02:35 | 30.40666 | 93.62541 | 31215 ft | 444 kts | 228° |
| 2026-05-08 02:36 | 30.36457 | 93.57248 | 31220 ft | 443 kts | 231° |
| 2026-05-08 02:36 | 30.32579 | 93.51835 | 31224 ft | 432 kts | 232° |
| 2026-05-08 02:37 | 30.28739 | 93.46458 | 31219 ft | 435 kts | 232° |
| 2026-05-08 02:37 | 30.24859 | 93.41098 | 31222 ft | 436 kts | 232° |
| 2026-05-08 02:38 | 30.20966 | 93.35742 | 31189 ft | 434 kts | 232° |
| 2026-05-08 02:38 | 30.17067 | 93.30404 | 31193 ft | 435 kts | 232° |
| 2026-05-08 02:39 | 30.13170 | 93.25054 | 31197 ft | 435 kts | 231° |
| 2026-05-08 02:39 | 30.09270 | 93.19715 | 31171 ft | 435 kts | 231° |
| 2026-05-08 02:40 | 30.05377 | 93.14398 | 31179 ft | 429 kts | 232° |
| 2026-05-08 02:40 | 30.02181 | 93.08619 | 31180 ft | 429 kts | 249° |
| 2026-05-08 02:41 | 30.01381 | 93.05366 | 31173 ft | 428 kts | 260° |
| 2026-05-08 02:41 | 30.01143 | 93.01925 | 31162 ft | 434 kts | 270° |
| 2026-05-08 02:41 | 30.01912 | 92.95011 | 31160 ft | 434 kts | 277° |
| 2026-05-08 02:42 | 30.02352 | 92.91573 | 30988 ft | 432 kts | 277° |
| 2026-05-08 02:42 | 30.02789 | 92.88138 | 30213 ft | 436 kts | 277° |
| 2026-05-08 02:42 | 30.03231 | 92.84631 | 28858 ft | 446 kts | 277° |
| 2026-05-08 02:42 | 30.03680 | 92.81063 | 27613 ft | 451 kts | 277° |
| 2026-05-08 02:43 | 30.04131 | 92.77459 | 26344 ft | 456 kts | 277° |
| 2026-05-08 02:43 | 30.04585 | 92.73838 | 25338 ft | 455 kts | 277° |
| 2026-05-08 02:43 | 30.05036 | 92.70237 | 24766 ft | 452 kts | 277° |
| 2026-05-08 02:43 | 30.05485 | 92.66638 | 24449 ft | 454 kts | 277° |
| 2026-05-08 02:44 | 30.05920 | 92.63025 | 24259 ft | 452 kts | 275° |
| 2026-05-08 02:44 | 30.06030 | 92.59408 | 24153 ft | 450 kts | 267° |
| 2026-05-08 02:44 | 30.05685 | 92.55815 | 24144 ft | 452 kts | 259° |
| 2026-05-08 02:44 | 30.04902 | 92.52305 | 24142 ft | 451 kts | 251° |
| 2026-05-08 02:45 | 30.03837 | 92.48907 | 24148 ft | 452 kts | 250° |
| 2026-05-08 02:45 | 30.02783 | 92.45530 | 24141 ft | 451 kts | 251° |
| 2026-05-08 02:45 | 30.01725 | 92.42128 | 24142 ft | 452 kts | 251° |
| 2026-05-08 02:45 | 30.00663 | 92.38714 | 24144 ft | 452 kts | 251° |
| 2026-05-08 02:46 | 29.99599 | 92.35303 | 24135 ft | 452 kts | 251° |
| 2026-05-08 02:46 | 29.98535 | 92.31895 | 24138 ft | 451 kts | 251° |
| 2026-05-08 02:46 | 29.97472 | 92.28488 | 24129 ft | 452 kts | 250° |
| 2026-05-08 02:46 | 29.96405 | 92.25076 | 24125 ft | 452 kts | 250° |
| 2026-05-08 02:47 | 29.95335 | 92.21664 | 24122 ft | 453 kts | 250° |
| 2026-05-08 02:47 | 29.94266 | 92.18258 | 24123 ft | 452 kts | 250° |
| 2026-05-08 02:47 | 29.93193 | 92.14848 | 24121 ft | 452 kts | 250° |
| 2026-05-08 02:47 | 29.92122 | 92.11442 | 24108 ft | 452 kts | 250° |
| 2026-05-08 02:48 | 29.91050 | 92.08038 | 24107 ft | 451 kts | 250° |
| 2026-05-08 02:48 | 29.89980 | 92.04639 | 24109 ft | 452 kts | 250° |
| 2026-05-08 02:48 | 29.88907 | 92.01237 | 24107 ft | 452 kts | 250° |
| 2026-05-08 02:48 | 29.87830 | 91.97828 | 24082 ft | 451 kts | 250° |
| 2026-05-08 02:49 | 29.86755 | 91.94432 | 24083 ft | 452 kts | 250° |
| 2026-05-08 02:49 | 29.85678 | 91.91032 | 24081 ft | 451 kts | 250° |
| 2026-05-08 02:49 | 29.84598 | 91.87619 | 24083 ft | 455 kts | 250° |
| 2026-05-08 02:49 | 29.83514 | 91.84197 | 24083 ft | 455 kts | 250° |
| 2026-05-08 02:50 | 29.82444 | 91.80820 | 24055 ft | 454 kts | 250° |
| 2026-05-08 02:50 | 29.81371 | 91.77397 | 24067 ft | 454 kts | 250° |
| 2026-05-08 02:50 | 29.80307 | 91.73980 | 24066 ft | 452 kts | 250° |
| 2026-05-08 02:50 | 29.79245 | 91.70568 | 24067 ft | 454 kts | 250° |
| 2026-05-08 02:51 | 29.78177 | 91.67149 | 24057 ft | 454 kts | 250° |
| 2026-05-08 02:51 | 29.77107 | 91.63731 | 24051 ft | 453 kts | 250° |
| 2026-05-08 02:51 | 29.76035 | 91.60310 | 24058 ft | 455 kts | 250° |
| 2026-05-08 02:51 | 29.74961 | 91.56887 | 24059 ft | 454 kts | 250° |
| 2026-05-08 02:52 | 29.73891 | 91.53477 | 24053 ft | 454 kts | 250° |
| 2026-05-08 02:52 | 29.72816 | 91.50056 | 24052 ft | 454 kts | 250° |
| 2026-05-08 02:52 | 29.71744 | 91.46637 | 24046 ft | 454 kts | 250° |
| 2026-05-08 02:52 | 29.70674 | 91.43216 | 24051 ft | 454 kts | 250° |
| 2026-05-08 02:53 | 29.69607 | 91.39793 | 24052 ft | 454 kts | 250° |
| 2026-05-08 02:53 | 29.68540 | 91.36374 | 24050 ft | 454 kts | 250° |
| 2026-05-08 02:53 | 29.67472 | 91.32957 | 24050 ft | 454 kts | 250° |
| 2026-05-08 02:53 | 29.66500 | 91.29495 | 24049 ft | 454 kts | 255° |
| 2026-05-08 02:54 | 29.65830 | 91.25956 | 24050 ft | 453 kts | 260° |
| 2026-05-08 02:54 | 29.65456 | 91.22355 | 24050 ft | 454 kts | 265° |
| 2026-05-08 02:54 | 29.65378 | 91.18733 | 24050 ft | 454 kts | 271° |
| 2026-05-08 02:54 | 29.65530 | 91.15149 | 24047 ft | 454 kts | 270° |
| 2026-05-08 02:55 | 29.65265 | 91.11513 | 23843 ft | 448 kts | 259° |
| 2026-05-08 02:55 | 29.62934 | 91.05170 | 23404 ft | 422 kts | 236° |
| 2026-05-08 02:55 | 29.61074 | 91.02642 | 23072 ft | 409 kts | 226° |
| 2026-05-08 02:56 | 29.58872 | 91.00577 | 22005 ft | 413 kts | 215° |
| 2026-05-08 02:56 | 29.56294 | 90.99012 | 20597 ft | 427 kts | 205° |
| 2026-05-08 02:56 | 29.53537 | 90.97661 | 19575 ft | 430 kts | 204° |
| 2026-05-08 02:56 | 29.50818 | 90.96343 | 19250 ft | 414 kts | 204° |
| 2026-05-08 02:57 | 29.48231 | 90.95072 | 19064 ft | 394 kts | 204° |
| 2026-05-08 02:57 | 29.45791 | 90.93858 | 18838 ft | 369 kts | 205° |
| 2026-05-08 02:57 | 29.43505 | 90.92713 | 18639 ft | 348 kts | 205° |
| 2026-05-08 02:57 | 29.41335 | 90.91617 | 18271 ft | 336 kts | 205° |
| 2026-05-08 02:58 | 29.39435 | 90.90206 | 18084 ft | 318 kts | 224° |
| 2026-05-08 02:58 | 29.38130 | 90.88237 | 17643 ft | 307 kts | 244° |
| 2026-05-08 02:58 | 29.37419 | 90.85937 | 16845 ft | 307 kts | 257° |
| 2026-05-08 02:58 | 29.37075 | 90.83518 | 16027 ft | 308 kts | 261° |
| 2026-05-08 02:59 | 29.36757 | 90.81101 | 15359 ft | 304 kts | 260° |
| 2026-05-08 02:59 | 29.36391 | 90.78742 | 14828 ft | 296 kts | 257° |
| 2026-05-08 02:59 | 29.35705 | 90.76586 | 14433 ft | 280 kts | 233° |
| 2026-05-08 02:59 | 29.34300 | 90.75268 | 14342 ft | 250 kts | 198° |
| 2026-05-08 03:00 | 29.32683 | 90.75020 | 14215 ft | 226 kts | 175° |
| 2026-05-08 03:00 | 29.31242 | 90.75485 | 13862 ft | 213 kts | 153° |
| 2026-05-08 03:00 | 29.30082 | 90.76488 | 13491 ft | 207 kts | 133° |
| 2026-05-08 03:00 | 29.29413 | 90.77880 | 13255 ft | 196 kts | 103° |
| 2026-05-08 03:01 | 29.29407 | 90.79438 | 13006 ft | 198 kts | 82° |
| 2026-05-08 03:01 | 29.29559 | 90.80980 | 12795 ft | 190 kts | 87° |
| 2026-05-08 03:01 | 29.29622 | 90.82489 | 12584 ft | 193 kts | 87° |
| 2026-05-08 03:01 | 29.29689 | 90.84023 | 12412 ft | 193 kts | 88° |
| 2026-05-08 03:02 | 29.29732 | 90.85573 | 12184 ft | 196 kts | 90° |
| 2026-05-08 03:02 | 29.29744 | 90.87138 | 11912 ft | 195 kts | 91° |
| 2026-05-08 03:02 | 29.29774 | 90.88626 | 11699 ft | 179 kts | 90° |
| 2026-05-08 03:02 | 29.29788 | 90.89979 | 11592 ft | 159 kts | 90° |
| 2026-05-08 03:03 | 29.29804 | 90.90854 | 11584 ft | 43 kts | 90° |
| 2026-05-08 03:03 | 29.29807 | 90.91170 | 11585 ft | 39 kts | 89° |
| 2026-05-08 03:03 | 29.29812 | 90.91479 | 11586 ft | 38 kts | 88° |
| 2026-05-08 03:03 | 29.29820 | 90.91776 | 11574 ft | 37 kts | 89° |
| 2026-05-08 03:04 | 29.29787 | 90.92034 | 11566 ft | 25 kts | 119° |
| 2026-05-08 03:04 | 29.29721 | 90.92174 | 11568 ft | 13 kts | 130° |
| 2026-05-08 03:04 | 29.29654 | 90.92160 | 11565 ft | 11 kts | 260° |
| 2026-05-08 03:04 | 29.29656 | 90.92059 | 11575 ft | 14 kts | 272° |
| 2026-05-08 03:05 | 29.29655 | 90.91938 | 11573 ft | 16 kts | 268° |
| 2026-05-08 03:05 | 29.29651 | 90.91802 | 11568 ft | 18 kts | 268° |
| 2026-05-08 03:05 | 29.29649 | 90.91646 | 11580 ft | 21 kts | 270° |
| 2026-05-08 03:05 | 29.29647 | 90.91472 | 11574 ft | 23 kts | 270° |
| 2026-05-08 03:06 | 29.29644 | 90.91290 | 11584 ft | 23 kts | 268° |
| 2026-05-08 03:06 | 29.29640 | 90.91099 | 11584 ft | 25 kts | 269° |
| 2026-05-08 03:06 | 29.29637 | 90.90904 | 11576 ft | 23 kts | 269° |
| 2026-05-08 03:06 | 29.29635 | 90.90715 | 11584 ft | 24 kts | 269° |
| 2026-05-08 03:07 | 29.29630 | 90.90517 | 11585 ft | 25 kts | 268° |
| 2026-05-08 03:07 | 29.29627 | 90.90329 | 11577 ft | 22 kts | 270° |
| 2026-05-08 03:07 | 29.29625 | 90.90149 | 11580 ft | 23 kts | 268° |
| 2026-05-08 03:07 | 29.29613 | 90.90015 | 11575 ft | 11 kts | 227° |
| 2026-05-08 03:08 | 29.29538 | 90.90001 | 11575 ft | 12 kts | 198° |
| 2026-05-08 03:08 | 29.29453 | 90.89984 | 11579 ft | 11 kts | 181° |
| 2026-05-08 03:08 | 29.29432 | 90.89984 | 11577 ft | 2 kts | 181° |
| 2026-05-08 03:08 | 29.29431 | 90.89984 | 11576 ft | 0 kts | 181° |